Time;durP1;ratioP1;P1;durP2;ratioP2;P2;SDS_P1;SDS_P2;PMS_P1;PMS_P2;Temp;Humidity;BMP_temperature;BMP_pressure;BME280_temperature;BME280_humidity;BME280_pressure;Samples;Min_cycle;Max_cycle;Signal;HPM_P1;HPM_P2
2023/05/09 00:01:34;;;;;;;74.15;44.40;;;12.20;99.90;;;;;;5007187;28;20033;-83
2023/05/09 00:04:00;;;;;;;60.45;39.35;;;12.20;99.90;;;;;;5031287;28;20084;-83
2023/05/09 00:06:26;;;;;;;68.55;40.80;;;12.30;99.90;;;;;;5033166;28;20038;-82
2023/05/09 00:08:53;;;;;;;65.93;39.65;;;12.30;99.90;;;;;;5024141;28;20040;-83
2023/05/09 00:11:20;;;;;;;71.10;44.10;;;12.20;99.90;;;;;;5018474;28;20051;-83
2023/05/09 00:13:47;;;;;;;66.35;41.55;;;12.20;99.90;;;;;;5030993;28;20037;-82
2023/05/09 00:16:58;;;;;;;74.07;44.17;;;12.20;99.90;;;;;;5032134;28;20037;-82
2023/05/09 00:19:24;;;;;;;70.90;42.55;;;12.30;99.90;;;;;;5036183;28;20037;-82
2023/05/09 00:21:49;;;;;;;74.93;46.42;;;12.30;99.90;;;;;;5030925;28;20079;-82
2023/05/09 00:24:15;;;;;;;73.35;47.15;;;12.30;99.90;;;;;;5031186;28;20451;-82
2023/05/09 00:26:41;;;;;;;75.45;45.47;;;12.30;99.90;;;;;;5022435;28;20026;-82
2023/05/09 00:29:06;;;;;;;75.47;44.53;;;12.40;99.90;;;;;;5030945;28;20036;-82
2023/05/09 00:31:32;;;;;;;76.97;45.50;;;12.40;99.90;;;;;;5023517;28;20083;-83
2023/05/09 00:33:58;;;;;;;72.65;45.58;;;12.40;99.90;;;;;;5020271;28;20025;-82
2023/05/09 00:36:23;;;;;;;67.93;42.15;;;12.40;99.90;;;;;;5033724;28;20425;-82
2023/05/09 00:38:49;;;;;;;80.38;44.20;;;12.30;99.90;;;;;;5021223;28;20080;-82
2023/05/09 00:41:15;;;;;;;73.82;43.17;;;12.30;99.90;;;;;;5033132;28;20392;-82
2023/05/09 00:43:53;;;;;;;77.97;43.78;;;12.30;99.90;;;;;;5032927;28;20155;-82
2023/05/09 00:46:19;;;;;;;72.50;43.70;;;12.30;99.90;;;;;;5033069;28;20056;-82
2023/05/09 00:48:45;;;;;;;75.97;43.70;;;12.20;99.90;;;;;;5030056;28;20037;-82
2023/05/09 00:51:11;;;;;;;75.20;44.90;;;12.20;99.90;;;;;;5026552;28;20034;-82
2023/05/09 00:53:37;;;;;;;77.57;44.38;;;12.20;99.90;;;;;;5023103;28;20101;-82
2023/05/09 00:56:04;;;;;;;76.95;46.45;;;12.20;99.90;;;;;;5021437;28;20045;-82
2023/05/09 00:58:29;;;;;;;80.00;47.45;;;12.20;99.90;;;;;;5024301;28;20029;-83
2023/05/09 01:00:55;;;;;;;78.43;45.38;;;12.20;99.90;;;;;;5021383;28;20029;-82
2023/05/09 01:03:21;;;;;;;73.80;43.67;;;12.30;99.90;;;;;;5018578;28;20030;-82
2023/05/09 01:06:05;;;;;;;78.38;45.33;;;12.20;99.90;;;;;;5021432;28;20121;-82
2023/05/09 01:08:44;;;;;;;71.65;45.13;;;12.30;99.90;;;;;;5012944;28;20083;-82
2023/05/09 01:11:28;;;;;;;80.78;45.35;;;12.30;99.90;;;;;;5016914;28;20161;-82
2023/05/09 01:14:05;;;;;;;73.40;44.17;;;12.30;99.90;;;;;;5056870;28;20025;-82
2023/05/09 01:16:40;;;;;;;78.93;46.03;;;12.30;99.90;;;;;;5029426;28;20127;-82
2023/05/09 01:19:25;;;;;;;76.10;45.67;;;12.30;99.90;;;;;;5021988;28;20053;-82
2023/05/09 01:21:54;;;;;;;84.63;44.63;;;12.30;99.90;;;;;;5037704;28;20026;-82
2023/05/09 01:24:56;;;;;;;73.68;44.00;;;12.30;99.90;;;;;;5018119;28;20048;-83
2023/05/09 01:28:19;;;;;;;71.00;42.53;;;12.20;99.90;;;;;;5022941;28;20601;-82
2023/05/09 01:30:46;;;;;;;73.55;42.42;;;12.30;99.90;;;;;;4993388;28;20655;-83
2023/05/09 01:33:17;;;;;;;75.05;45.72;;;12.20;99.90;;;;;;4995374;28;20018;-82
2023/05/09 01:35:48;;;;;;;75.72;45.13;;;12.20;99.90;;;;;;5006113;28;20045;-83
2023/05/09 01:38:16;;;;;;;;;;;12.30;99.90;;;;;;5021426;28;20037;-83
2023/05/09 01:40:44;;;;;;;77.50;44.17;;;12.30;99.90;;;;;;5015496;28;19915;-82
2023/05/09 01:43:12;;;;;;;72.95;43.85;;;12.20;99.90;;;;;;5022418;28;20030;-82
2023/05/09 01:45:38;;;;;;;76.53;44.05;;;12.20;99.90;;;;;;5023218;28;20038;-82
2023/05/09 01:48:07;;;;;;;81.07;44.67;;;12.20;99.90;;;;;;5024017;28;20041;-82
2023/05/09 01:50:34;;;;;;;73.80;45.25;;;12.20;99.90;;;;;;5030079;28;20021;-82
2023/05/09 01:53:00;;;;;;;79.38;47.00;;;12.20;99.90;;;;;;5020640;28;20037;-82
2023/05/09 01:55:29;;;;;;;73.18;43.97;;;12.20;99.90;;;;;;5018582;28;20068;-82
2023/05/09 01:57:57;;;;;;;78.15;44.53;;;12.20;99.90;;;;;;5036913;28;20370;-82
2023/05/09 02:00:23;;;;;;;80.45;46.80;;;12.20;99.90;;;;;;5028717;28;20033;-82
2023/05/09 02:02:51;;;;;;;76.07;43.72;;;12.20;99.90;;;;;;5013668;28;20033;-82
2023/05/09 02:05:17;;;;;;;71.72;42.65;;;12.20;99.90;;;;;;5022763;28;20087;-82
2023/05/09 02:07:45;;;;;;;72.22;43.60;;;12.20;99.90;;;;;;5014107;28;20742;-82
2023/05/09 02:10:12;;;;;;;70.00;42.42;;;12.20;99.90;;;;;;5016124;28;20037;-82
2023/05/09 02:12:38;;;;;;;73.45;41.63;;;12.20;99.90;;;;;;5025101;28;20465;-82
2023/05/09 02:15:05;;;;;;;68.65;41.58;;;12.10;99.90;;;;;;5036347;28;20052;-82
2023/05/09 02:17:31;;;;;;;75.40;44.00;;;12.20;99.90;;;;;;5029912;28;20026;-82
2023/05/09 02:19:57;;;;;;;74.10;44.22;;;12.10;99.90;;;;;;5042624;28;20033;-82
2023/05/09 02:22:23;;;;;;;69.85;42.28;;;12.10;99.90;;;;;;5019715;28;20060;-82
2023/05/09 02:24:49;;;;;;;76.95;43.42;;;12.10;99.90;;;;;;5020041;28;20029;-82
2023/05/09 02:27:15;;;;;;;73.28;42.97;;;12.10;99.90;;;;;;5019873;28;20483;-82
2023/05/09 02:29:45;;;;;;;67.15;42.53;;;12.10;99.90;;;;;;5021252;28;20022;-82
2023/05/09 02:32:15;;;;;;;74.35;43.38;;;12.10;99.90;;;;;;5021838;28;20034;-82
2023/05/09 02:34:41;;;;;;;69.88;41.53;;;12.20;99.90;;;;;;5033996;28;20040;-82
2023/05/09 02:37:09;;;;;;;66.20;40.90;;;12.20;99.90;;;;;;5031517;28;20033;-83
2023/05/09 02:39:35;;;;;;;71.13;41.92;;;12.20;99.90;;;;;;5045449;28;20025;-82
2023/05/09 02:42:08;;;;;;;68.72;40.35;;;12.30;99.90;;;;;;5013646;28;20416;-82
2023/05/09 02:44:33;;;;;;;69.90;41.25;;;12.20;99.90;;;;;;5038666;28;20041;-83
2023/05/09 02:47:00;;;;;;;71.78;40.13;;;12.30;99.90;;;;;;5031613;28;20033;-83
2023/05/09 02:49:26;;;;;;;68.50;40.80;;;12.30;99.90;;;;;;5014119;28;20045;-83
2023/05/09 02:51:52;;;;;;;71.00;40.47;;;12.30;99.90;;;;;;5018698;28;20021;-82
2023/05/09 02:54:17;;;;;;;71.00;42.15;;;12.20;99.90;;;;;;5031357;28;20061;-82
2023/05/09 02:56:43;;;;;;;67.25;40.05;;;12.10;99.90;;;;;;5028065;28;20017;-82
2023/05/09 02:59:09;;;;;;;63.88;40.67;;;12.10;99.90;;;;;;5035232;28;20022;-82
2023/05/09 03:01:34;;;;;;;69.13;42.22;;;12.10;99.90;;;;;;5023055;28;20025;-82
2023/05/09 03:04:01;;;;;;;66.18;41.65;;;12.10;99.90;;;;;;5028252;28;20076;-82
2023/05/09 03:06:27;;;;;;;67.95;41.75;;;12.10;99.90;;;;;;5026020;28;20544;-82
2023/05/09 03:08:53;;;;;;;66.07;39.92;;;12.00;99.90;;;;;;5025061;28;20116;-82
2023/05/09 03:11:20;;;;;;;69.25;40.45;;;12.10;99.90;;;;;;5030650;28;20059;-82
2023/05/09 03:13:47;;;;;;;67.22;39.95;;;12.10;99.90;;;;;;5021797;28;20551;-82
2023/05/09 03:16:14;;;;;;;66.97;40.60;;;12.10;99.90;;;;;;5031219;28;20026;-83
2023/05/09 03:18:40;;;;;;;66.18;40.13;;;12.10;99.90;;;;;;5031667;28;20056;-82
2023/05/09 03:21:06;;;;;;;66.18;41.65;;;12.20;99.90;;;;;;5023600;28;20059;-82
2023/05/09 03:23:34;;;;;;;65.85;40.22;;;12.20;99.90;;;;;;5031927;28;20029;-82
2023/05/09 03:26:01;;;;;;;66.43;41.22;;;12.20;99.90;;;;;;5022790;28;20017;-83
2023/05/09 03:28:27;;;;;;;65.85;38.78;;;12.20;99.90;;;;;;5034531;28;20504;-82
2023/05/09 03:30:57;;;;;;;65.85;39.22;;;12.20;99.90;;;;;;5024768;28;20029;-82
2023/05/09 03:33:26;;;;;;;66.72;40.45;;;12.20;99.90;;;;;;5035890;28;20048;-82
2023/05/09 03:35:53;;;;;;;66.88;39.90;;;12.20;99.90;;;;;;5021442;28;20038;-82
2023/05/09 03:38:18;;;;;;;62.92;40.47;;;12.30;99.90;;;;;;5022248;28;20041;-82
2023/05/09 03:40:44;;;;;;;68.97;40.30;;;12.20;99.90;;;;;;5023484;28;20033;-82
2023/05/09 03:43:11;;;;;;;65.70;39.83;;;12.20;99.90;;;;;;5022901;28;20037;-82
2023/05/09 03:45:37;;;;;;;63.72;38.20;;;12.20;99.90;;;;;;5031661;28;20675;-82
2023/05/09 03:48:07;;;;;;;70.68;41.22;;;12.20;99.90;;;;;;5022230;28;20026;-82
2023/05/09 03:50:34;;;;;;;67.72;38.92;;;12.20;99.90;;;;;;5030939;28;20021;-85
2023/05/09 03:53:01;;;;;;;66.53;40.72;;;12.10;99.90;;;;;;5011719;28;20026;-84
2023/05/09 03:55:26;;;;;;;61.75;38.38;;;12.20;99.90;;;;;;5025594;28;20100;-84
2023/05/09 03:57:53;;;;;;;67.05;40.28;;;12.20;99.90;;;;;;5030849;28;20457;-84
2023/05/09 04:00:20;;;;;;;64.63;39.67;;;12.20;99.90;;;;;;5034291;28;20030;-84
2023/05/09 04:02:56;;;;;;;61.33;37.22;;;12.30;99.90;;;;;;5028443;28;20116;-85
2023/05/09 04:05:32;;;;;;;62.42;36.45;;;12.30;99.90;;;;;;5039163;28;20033;-84
2023/05/09 04:07:58;;;;;;;59.17;36.17;;;12.30;99.90;;;;;;5020371;28;20021;-85
2023/05/09 04:10:24;;;;;;;59.45;37.22;;;12.30;99.90;;;;;;5034426;28;20129;-84
2023/05/09 04:12:50;;;;;;;66.05;37.92;;;12.30;99.90;;;;;;5024526;28;20021;-84
2023/05/09 04:15:16;;;;;;;65.82;38.53;;;12.30;99.90;;;;;;5034097;28;20002;-84
2023/05/09 04:17:43;;;;;;;64.55;38.35;;;12.30;99.90;;;;;;5021874;28;20070;-84
2023/05/09 04:20:09;;;;;;;61.92;38.55;;;12.30;99.90;;;;;;5019867;28;20022;-84
2023/05/09 04:22:35;;;;;;;64.38;37.83;;;12.30;99.90;;;;;;5031046;28;20029;-84
2023/05/09 04:25:02;;;;;;;62.92;38.13;;;12.40;99.90;;;;;;5024452;28;20025;-84
2023/05/09 04:27:28;;;;;;;58.08;36.58;;;12.40;99.90;;;;;;5033789;28;20373;-84
2023/05/09 04:29:54;;;;;;;57.38;37.10;;;12.40;99.90;;;;;;5016174;28;20030;-84
2023/05/09 04:32:22;;;;;;;63.20;37.85;;;12.30;99.90;;;;;;5027504;28;20022;-84
2023/05/09 04:34:48;;;;;;;61.47;36.08;;;12.40;99.90;;;;;;5024346;28;20105;-84
2023/05/09 04:37:20;;;;;;;55.50;35.38;;;12.30;99.90;;;;;;5034003;28;20507;-83
2023/05/09 04:39:46;;;;;;;60.55;36.47;;;12.30;99.90;;;;;;5021945;28;20057;-84
2023/05/09 04:42:24;;;;;;;55.60;35.67;;;12.30;99.90;;;;;;5020576;28;20036;-84
2023/05/09 04:44:50;;;;;;;59.65;35.65;;;12.30;99.90;;;;;;5021099;28;20060;-83
2023/05/09 04:47:16;;;;;;;55.97;35.03;;;12.30;99.90;;;;;;5021394;28;20083;-84
2023/05/09 04:49:42;;;;;;;51.95;33.83;;;12.30;99.90;;;;;;5014074;28;20481;-84
2023/05/09 04:52:08;;;;;;;54.10;33.92;;;12.30;99.90;;;;;;5016294;28;20457;-84
2023/05/09 04:54:33;;;;;;;56.67;35.60;;;12.40;99.90;;;;;;5031025;28;20030;-84
2023/05/09 04:56:59;;;;;;;60.67;35.38;;;12.30;99.90;;;;;;5032619;28;20071;-84
2023/05/09 04:59:26;;;;;;;59.53;35.35;;;12.40;99.90;;;;;;5012172;28;20124;-84
2023/05/09 05:01:52;;;;;;;73.18;37.85;;;12.40;99.90;;;;;;5021442;28;20092;-84
2023/05/09 05:04:38;;;;;;;56.90;35.80;;;12.40;99.90;;;;;;5030300;28;20078;-84
2023/05/09 05:07:04;;;;;;;58.67;35.63;;;12.40;99.90;;;;;;5038660;28;20030;-84
2023/05/09 05:09:31;;;;;;;53.35;34.20;;;12.40;99.90;;;;;;5033329;28;20146;-84
2023/05/09 05:11:57;;;;;;;58.70;35.35;;;12.40;99.90;;;;;;5030207;28;20481;-84
2023/05/09 05:14:23;;;;;;;57.58;35.35;;;12.40;99.90;;;;;;5031043;28;20092;-84
2023/05/09 05:16:50;;;;;;;52.83;33.10;;;12.40;99.90;;;;;;5030744;28;20079;-84
2023/05/09 05:19:15;;;;;;;60.67;34.90;;;12.40;99.90;;;;;;5029769;28;20128;-85
2023/05/09 05:21:41;;;;;;;53.85;34.72;;;12.40;99.90;;;;;;5019965;28;20033;-84
2023/05/09 05:24:08;;;;;;;53.03;33.53;;;12.50;99.90;;;;;;5018058;28;20037;-84
2023/05/09 05:26:34;;;;;;;56.60;33.13;;;12.50;99.90;;;;;;5030859;28;20167;-84
2023/05/09 05:29:00;;;;;;;54.58;34.33;;;12.60;99.90;;;;;;5019336;28;20026;-85
2023/05/09 05:31:25;;;;;;;52.20;31.75;;;12.60;99.90;;;;;;5016140;28;20029;-84
2023/05/09 05:33:51;;;;;;;54.35;32.28;;;12.70;99.90;;;;;;5037007;28;20112;-84
2023/05/09 05:36:17;;;;;;;53.67;32.83;;;12.70;99.90;;;;;;5032344;28;20097;-85
2023/05/09 05:38:43;;;;;;;54.10;33.15;;;12.80;99.90;;;;;;5032804;28;20489;-85
2023/05/09 05:41:10;;;;;;;58.03;31.30;;;12.90;99.90;;;;;;5032830;28;20032;-84
2023/05/09 05:43:37;;;;;;;52.70;32.08;;;12.90;99.90;;;;;;5030215;28;20385;-84
2023/05/09 05:46:04;;;;;;;51.05;30.60;;;13.10;99.90;;;;;;5042693;28;20358;-84
2023/05/09 05:48:32;;;;;;;51.70;32.08;;;13.10;99.90;;;;;;5020882;28;20034;-84
2023/05/09 05:50:57;;;;;;;48.17;31.38;;;13.20;99.90;;;;;;5021071;28;20022;-84
2023/05/09 05:53:26;;;;;;;56.15;33.40;;;13.10;99.90;;;;;;5028637;28;20030;-84
2023/05/09 05:55:52;;;;;;;50.33;31.65;;;13.10;99.90;;;;;;5019744;28;20026;-84
2023/05/09 05:58:18;;;;;;;57.05;31.55;;;13.10;99.90;;;;;;5025380;28;20138;-84
2023/05/09 06:00:44;;;;;;;50.90;31.65;;;13.10;99.90;;;;;;5031086;28;20033;-84
2023/05/09 06:03:12;;;;;;;49.63;32.10;;;13.10;99.90;;;;;;5028095;28;20168;-85
2023/05/09 06:05:45;;;;;;;53.28;32.35;;;13.10;99.90;;;;;;5015292;28;20393;-85
2023/05/09 06:08:11;;;;;;;55.78;34.15;;;13.10;99.90;;;;;;5018856;28;20583;-84
2023/05/09 06:10:37;;;;;;;59.08;35.38;;;13.00;99.90;;;;;;5018331;28;20109;-83
2023/05/09 06:13:03;;;;;;;55.45;34.17;;;12.90;99.90;;;;;;5025114;28;20040;-84
2023/05/09 06:15:29;;;;;;;59.60;35.63;;;12.80;99.90;;;;;;5018987;28;20030;-84
2023/05/09 06:17:55;;;;;;;56.25;35.17;;;12.70;99.90;;;;;;5034555;28;20029;-83
2023/05/09 06:20:20;;;;;;;58.28;35.78;;;12.80;99.90;;;;;;5019996;28;20528;-84
2023/05/09 06:22:46;;;;;;;58.20;36.03;;;12.70;99.90;;;;;;5029597;28;20022;-84
2023/05/09 06:25:12;;;;;;;60.13;34.80;;;12.80;99.90;;;;;;5034274;28;20049;-84
2023/05/09 06:27:38;;;;;;;60.20;35.05;;;12.90;99.90;;;;;;5041703;28;20478;-84
2023/05/09 06:30:05;;;;;;;59.60;35.03;;;13.00;99.90;;;;;;5030867;28;20041;-84
2023/05/09 06:32:30;;;;;;;57.30;35.30;;;13.00;99.90;;;;;;5040765;28;20044;-84
2023/05/09 06:34:56;;;;;;;60.63;37.42;;;12.90;99.90;;;;;;5022955;28;20029;-84
2023/05/09 06:37:22;;;;;;;60.70;37.25;;;12.80;99.90;;;;;;5044950;28;20053;-84
2023/05/09 06:39:49;;;;;;;60.97;36.08;;;12.60;99.90;;;;;;5029324;28;20045;-83
2023/05/09 06:42:15;;;;;;;61.85;37.33;;;12.50;99.90;;;;;;5045498;28;20033;-84
2023/05/09 06:44:42;;;;;;;68.45;37.25;;;12.50;99.90;;;;;;5033299;28;20057;-84
2023/05/09 06:47:09;;;;;;;68.10;39.80;;;12.50;99.90;;;;;;5041715;28;20064;-85
2023/05/09 06:49:35;;;;;;;63.88;38.08;;;12.50;99.90;;;;;;5018312;28;20026;-84
2023/05/09 06:52:00;;;;;;;67.78;39.83;;;12.50;99.90;;;;;;5023903;28;20105;-84
2023/05/09 06:54:26;;;;;;;67.00;38.85;;;12.50;99.90;;;;;;5040225;28;20026;-85
2023/05/09 06:56:52;;;;;;;67.38;37.72;;;12.50;99.90;;;;;;5027020;28;20026;-84
2023/05/09 06:59:18;;;;;;;64.88;39.60;;;12.60;99.90;;;;;;5026358;28;20369;-84
2023/05/09 07:01:43;;;;;;;66.25;39.70;;;12.60;99.90;;;;;;5024375;28;20033;-85
2023/05/09 07:04:09;;;;;;;63.72;38.58;;;12.60;99.90;;;;;;5046598;28;20030;-84
2023/05/09 07:06:35;;;;;;;63.20;36.25;;;12.60;99.90;;;;;;5040708;28;20034;-85
2023/05/09 07:09:01;;;;;;;63.35;37.83;;;12.60;99.90;;;;;;5030584;28;20404;-84
2023/05/09 07:11:27;;;;;;;61.55;36.45;;;12.60;99.90;;;;;;5031654;28;20025;-84
2023/05/09 07:13:53;;;;;;;64.88;38.67;;;12.60;99.90;;;;;;5021221;28;20477;-84
2023/05/09 07:16:21;;;;;;;63.60;35.15;;;12.60;99.90;;;;;;5023790;28;20030;-84
2023/05/09 07:18:48;;;;;;;69.45;38.88;;;12.50;99.90;;;;;;5028000;28;20107;-84
2023/05/09 07:21:14;;;;;;;68.70;39.33;;;12.50;99.90;;;;;;5036278;28;20476;-84
2023/05/09 07:23:40;;;;;;;70.03;39.85;;;12.50;99.90;;;;;;5037002;28;20033;-84
2023/05/09 07:26:05;;;;;;;72.90;39.67;;;12.30;99.90;;;;;;5032357;28;20469;-83
2023/05/09 07:28:31;;;;;;;62.78;39.00;;;12.20;99.90;;;;;;5032611;28;20027;-83
2023/05/09 07:30:57;;;;;;;76.15;40.92;;;12.10;99.90;;;;;;5027518;28;20468;-84
2023/05/09 07:33:23;;;;;;;70.28;42.50;;;12.10;99.90;;;;;;5041838;28;20427;-84
2023/05/09 07:35:51;;;;;;;74.32;42.33;;;12.20;99.90;;;;;;5026460;28;20080;-84
2023/05/09 07:38:17;;;;;;;74.88;42.17;;;12.30;99.90;;;;;;5025971;28;20088;-84
2023/05/09 07:40:43;;;;;;;70.63;41.25;;;12.30;99.90;;;;;;5030125;28;20057;-84
2023/05/09 07:43:08;;;;;;;69.65;40.67;;;12.30;99.90;;;;;;5003392;28;20033;-84
2023/05/09 07:45:35;;;;;;;85.20;42.88;;;12.30;99.90;;;;;;5030503;28;20068;-85
2023/05/09 07:48:00;;;;;;;77.88;42.05;;;12.40;99.90;;;;;;5027995;28;20040;-84
2023/05/09 07:50:26;;;;;;;74.20;41.05;;;12.40;99.90;;;;;;5036969;28;20033;-84
2023/05/09 07:52:52;;;;;;;67.72;37.58;;;12.50;99.90;;;;;;5023367;28;20497;-84
2023/05/09 07:55:18;;;;;;;69.05;37.65;;;12.60;99.90;;;;;;5026756;28;20030;-84
2023/05/09 07:57:43;;;;;;;67.05;38.85;;;12.80;99.90;;;;;;5025888;28;20465;-84
2023/05/09 08:00:10;;;;;;;58.40;37.47;;;12.90;99.90;;;;;;5023438;28;20397;-84
2023/05/09 08:02:41;;;;;;;61.63;38.00;;;13.00;99.90;;;;;;5047927;28;20018;-84
2023/05/09 08:05:10;;;;;;;61.50;36.50;;;13.20;99.90;;;;;;5042943;28;20037;-85
2023/05/09 08:07:35;;;;;;;55.85;35.47;;;13.40;99.90;;;;;;5031889;28;20040;-84
2023/05/09 08:10:01;;;;;;;55.00;34.35;;;13.70;99.90;;;;;;5025195;28;20026;-84
2023/05/09 08:12:27;;;;;;;52.70;32.50;;;14.00;99.90;;;;;;5020889;28;20027;-84
2023/05/09 08:14:52;;;;;;;54.83;32.85;;;14.30;99.90;;;;;;5023165;28;20084;-85
2023/05/09 08:17:18;;;;;;;52.97;32.50;;;14.30;99.90;;;;;;5033902;28;20057;-84
2023/05/09 08:19:44;;;;;;;50.83;32.88;;;14.30;99.90;;;;;;5031577;28;20034;-84
2023/05/09 08:22:16;;;;;;;50.08;32.70;;;14.50;99.90;;;;;;5033467;28;20029;-85
2023/05/09 08:24:42;;;;;;;49.97;32.45;;;14.60;99.90;;;;;;5031255;28;20520;-85
2023/05/09 08:27:08;;;;;;;49.63;32.30;;;14.60;99.90;;;;;;5029297;28;20025;-85
2023/05/09 08:29:34;;;;;;;48.90;32.63;;;14.90;99.90;;;;;;5018369;28;20045;-85
2023/05/09 08:31:59;;;;;;;48.65;30.92;;;15.20;99.90;;;;;;5028125;28;20029;-84
2023/05/09 08:34:25;;;;;;;57.88;31.05;;;15.10;99.90;;;;;;5022855;28;20053;-84
2023/05/09 08:36:52;;;;;;;47.35;31.15;;;15.00;99.90;;;;;;5044321;28;20076;-84
2023/05/09 08:39:18;;;;;;;47.88;31.45;;;14.80;99.90;;;;;;5022349;28;20085;-85
2023/05/09 08:41:44;;;;;;;46.97;30.65;;;14.70;99.90;;;;;;5024597;28;20018;-84
2023/05/09 08:44:10;;;;;;;50.85;32.53;;;14.80;99.90;;;;;;5036617;28;20493;-84
2023/05/09 08:46:38;;;;;;;56.25;32.50;;;14.80;99.90;;;;;;5039213;28;20045;-84
2023/05/09 08:49:08;;;;;;;51.08;31.85;;;15.00;99.90;;;;;;5021598;28;20053;-85
2023/05/09 08:51:35;;;;;;;50.55;30.98;;;15.30;99.90;;;;;;5029349;28;20478;-84
2023/05/09 08:54:01;;;;;;;46.38;29.08;;;15.50;99.90;;;;;;5038298;28;20397;-84
2023/05/09 08:56:29;;;;;;;53.88;31.45;;;15.50;99.90;;;;;;5033301;28;20025;-85
2023/05/09 08:58:55;;;;;;;48.85;31.90;;;15.30;99.90;;;;;;5042466;28;20470;-85
2023/05/09 09:01:22;;;;;;;47.13;30.10;;;15.40;99.90;;;;;;5022894;28;20041;-85
2023/05/09 09:03:48;;;;;;;46.63;29.83;;;15.60;99.90;;;;;;5025766;28;20082;-85
2023/05/09 09:06:15;;;;;;;49.05;29.92;;;15.70;99.90;;;;;;5032174;28;20045;-85
2023/05/09 09:08:42;;;;;;;51.05;31.25;;;15.70;99.90;;;;;;5042001;28;20062;-85
2023/05/09 09:11:12;;;;;;;45.90;29.55;;;15.90;99.90;;;;;;5031459;28;20030;-86
2023/05/09 09:13:40;;;;;;;44.08;29.50;;;16.20;99.90;;;;;;5037112;28;20029;-85
2023/05/09 09:16:09;;;;;;;52.60;26.80;;;16.90;99.90;;;;;;5016814;28;20080;-85
2023/05/09 09:18:36;;;;;;;43.67;28.13;;;17.20;99.90;;;;;;5021648;28;20786;-85
2023/05/09 09:21:07;;;;;;;37.75;26.42;;;17.10;99.90;;;;;;5018070;28;20021;-86
2023/05/09 09:23:33;;;;;;;37.03;26.70;;;17.50;99.90;;;;;;5014956;28;20040;-85
2023/05/09 09:26:03;;;;;;;41.00;25.80;;;18.10;99.90;;;;;;5019873;28;20037;-86
2023/05/09 09:28:29;;;;;;;43.80;26.80;;;18.70;99.90;;;;;;5032270;28;20112;-86
2023/05/09 09:30:55;;;;;;;36.25;26.38;;;18.80;99.90;;;;;;5018498;28;20018;-85
2023/05/09 09:33:23;;;;;;;37.67;25.33;;;18.70;99.90;;;;;;5026446;28;20026;-86
2023/05/09 09:35:50;;;;;;;37.20;24.77;;;18.80;99.90;;;;;;5028158;28;20790;-86
2023/05/09 09:38:19;;;;;;;34.25;25.27;;;18.90;99.90;;;;;;5025666;28;20104;-86
2023/05/09 09:41:03;;;;;;;34.97;24.38;;;19.20;99.90;;;;;;5029847;28;20018;-86
2023/05/09 09:43:30;;;;;;;30.70;22.92;;;19.60;99.90;;;;;;5029645;28;20033;-86
2023/05/09 09:45:59;;;;;;;31.90;22.27;;;19.50;99.90;;;;;;5016285;28;20033;-85
2023/05/09 09:48:26;;;;;;;35.95;22.17;;;19.80;99.90;;;;;;5029882;28;20026;-85
2023/05/09 09:50:58;;;;;;;30.50;20.33;;;19.80;99.90;;;;;;5041301;28;20033;-85
2023/05/09 09:53:29;;;;;;;29.67;21.63;;;19.50;99.90;;;;;;5029069;28;20038;-85
2023/05/09 09:55:54;;;;;;;28.50;21.70;;;19.40;99.90;;;;;;5028682;28;20056;-86
2023/05/09 09:58:24;;;;;;;33.20;22.63;;;19.80;99.90;;;;;;5031889;28;20112;-86
2023/05/09 10:01:09;;;;;;;;;;;20.20;99.90;;;;;;5024085;28;20481;-86
2023/05/09 10:03:36;;;;;;;;;;;21.20;99.90;;;;;;5024925;28;19916;-86
2023/05/09 10:06:01;;;;;;;;;;;22.20;99.90;;;;;;5022339;28;19911;-86
2023/05/09 10:08:27;;;;;;;;;;;22.20;99.90;;;;;;5032500;28;19920;-86
2023/05/09 10:10:53;;;;;;;;;;;21.60;99.90;;;;;;5033614;28;19913;-84
2023/05/09 10:13:19;;;;;;;;;;;21.20;99.90;;;;;;5032953;28;19915;-85
2023/05/09 10:15:45;;;;;;;;;;;21.10;99.90;;;;;;5030419;28;19965;-84
2023/05/09 10:18:11;;;;;;;;;;;20.80;99.90;;;;;;5023010;28;24068;-84
2023/05/09 10:20:39;;;;;;;;;;;20.80;99.90;;;;;;5023110;28;19996;-84
2023/05/09 10:23:05;;;;;;;;;;;21.10;99.90;;;;;;5032407;28;19917;-85
2023/05/09 10:25:39;;;;;;;;;;;21.60;99.90;;;;;;5032737;28;19991;-84
2023/05/09 10:28:16;;;;;;;;;;;21.50;99.90;;;;;;5014675;28;19909;-85
2023/05/09 10:31:02;;;;;;;;;;;21.70;99.90;;;;;;5023489;28;19909;-84
2023/05/09 10:33:36;;;;;;;;;;;21.60;99.90;;;;;;5023697;28;19909;-85
2023/05/09 10:36:02;;;;;;;;;;;21.80;99.90;;;;;;5032465;28;19913;-84
2023/05/09 10:38:29;;;;;;;;;;;22.30;99.90;;;;;;5032788;28;19909;-84
2023/05/09 10:40:55;;;;;;;;;;;22.60;99.90;;;;;;5039327;28;19945;-84
2023/05/09 10:43:22;;;;;;;;;;;21.70;99.90;;;;;;5018892;28;19917;-85
2023/05/09 10:45:48;;;;;;;;;;;20.90;99.90;;;;;;5019546;28;19917;-85
2023/05/09 10:48:14;;;;;;;;;;;20.80;99.90;;;;;;5032549;28;19917;-84
2023/05/09 10:50:41;;;;;;;;;;;20.90;99.90;;;;;;5028583;28;19909;-84
2023/05/09 10:53:35;;;;;;;;;;;21.80;99.90;;;;;;5021082;28;20284;-84
2023/05/09 10:56:01;;;;;;;;;;;21.70;99.90;;;;;;5015790;28;20340;-85
2023/05/09 10:58:28;;;;;;;;;;;21.90;99.90;;;;;;5023510;28;19909;-84
2023/05/09 11:00:54;;;;;;;;;;;21.70;99.90;;;;;;5030184;28;20319;-85
2023/05/09 11:03:20;;;;;;;;;;;21.80;99.90;;;;;;5022804;28;19909;-85
2023/05/09 11:05:46;;;;;;;;;;;22.00;99.90;;;;;;5021559;28;19893;-85
2023/05/09 11:08:23;;;;;;;;;;;22.20;99.90;;;;;;5020800;28;19909;-85
2023/05/09 11:10:49;;;;;;;;;;;22.00;99.90;;;;;;5029453;28;19909;-85
2023/05/09 11:13:20;;;;;;;;;;;21.70;99.90;;;;;;5045163;28;19905;-85
2023/05/09 11:15:49;;;;;;;;;;;22.30;99.90;;;;;;5016674;28;19916;-85
2023/05/09 11:18:15;;;;;;;;;;;22.40;99.90;;;;;;5025827;28;19909;-85
2023/05/09 11:20:45;;;;;;;;;;;22.50;99.90;;;;;;5021927;28;19909;-84
2023/05/09 11:23:10;;;;;;;;;;;23.10;99.90;;;;;;5037743;28;19913;-85
2023/05/09 11:25:37;;;;;;;;;;;23.70;99.90;;;;;;5020536;28;20264;-84
2023/05/09 11:28:03;;;;;;;;;;;23.10;99.90;;;;;;5024269;28;19963;-84
2023/05/09 11:30:38;;;;;;;;;;;22.00;99.90;;;;;;5047808;28;20261;-85
2023/05/09 11:33:05;;;;;;;;;;;21.30;99.90;;;;;;5027673;28;20432;-85
2023/05/09 11:35:32;;;;;;;;;;;21.80;99.90;;;;;;5031704;28;19992;-85
2023/05/09 11:37:58;;;;;;;;;;;22.70;99.90;;;;;;5020501;28;19910;-85
2023/05/09 11:40:25;;;;;;;;;;;23.00;99.90;;;;;;5018336;28;19913;-85
2023/05/09 11:42:52;;;;;;;;;;;23.00;99.90;;;;;;5024121;28;20347;-85
2023/05/09 11:45:20;;;;;;;;;;;21.90;99.90;;;;;;5003935;28;19924;-84
2023/05/09 11:47:47;;;;;;;;;;;21.70;99.90;;;;;;5024759;28;19953;-85
2023/05/09 11:50:13;;;;;;;;;;;21.40;99.90;;;;;;5021622;28;19913;-85
2023/05/09 11:52:40;;;;;;;;;;;21.70;99.90;;;;;;5034073;28;19936;-85
2023/05/09 11:55:07;;;;;;;;;;;22.10;99.90;;;;;;5032216;28;19915;-84
2023/05/09 11:57:33;;;;;;;;;;;22.30;99.90;;;;;;5019434;28;19920;-85
2023/05/09 11:59:59;;;;;;;;;;;22.30;99.90;;;;;;5020460;28;20361;-85
2023/05/09 12:02:25;;;;;;;;;;;22.00;99.90;;;;;;5018650;28;19909;-84
2023/05/09 12:04:51;;;;;;;;;;;21.90;99.90;;;;;;5025428;28;19996;-84
2023/05/09 12:07:17;;;;;;;;;;;22.10;99.90;;;;;;5012183;28;19932;-85
2023/05/09 12:09:43;;;;;;;;;;;21.60;99.90;;;;;;5041673;28;20455;-85
2023/05/09 12:12:12;;;;;;;;;;;21.70;99.90;;;;;;5034957;28;19912;-85
2023/05/09 12:14:38;;;;;;;;;;;21.70;99.90;;;;;;5035967;28;20371;-85
2023/05/09 12:17:04;;;;;;;;;;;22.10;99.90;;;;;;5047161;28;20358;-85
2023/05/09 12:19:30;;;;;;;;;;;22.30;99.90;;;;;;5020617;28;19909;-85
2023/05/09 12:21:57;;;;;;;;;;;22.20;99.90;;;;;;5030397;28;19916;-84
2023/05/09 12:24:23;;;;;;;;;;;22.30;99.90;;;;;;5021049;28;19913;-84
2023/05/09 12:26:48;;;;;;;;;;;22.40;99.90;;;;;;5018485;28;20196;-85
2023/05/09 12:29:14;;;;;;;;;;;21.70;99.90;;;;;;5037892;28;19996;-84
2023/05/09 12:31:40;;;;;;;;;;;21.60;99.90;;;;;;5048172;28;19909;-84
2023/05/09 12:34:07;;;;;;;;;;;21.80;99.90;;;;;;5022322;28;19909;-85
2023/05/09 12:36:36;;;;;;;;;;;22.70;99.90;;;;;;5042002;28;19917;-84
2023/05/09 12:39:06;;;;;;;;;;;22.70;99.90;;;;;;5023088;28;19912;-84
2023/05/09 12:41:32;;;;;;;;;;;22.10;99.90;;;;;;5022758;28;19909;-84
2023/05/09 12:43:57;;;;;;;;;;;21.70;99.90;;;;;;5031161;28;19979;-85
2023/05/09 12:46:23;;;;;;;;;;;21.70;99.90;;;;;;5030038;28;19948;-84
2023/05/09 12:48:49;;;;;;;;;;;22.40;99.90;;;;;;5043088;28;19929;-85
2023/05/09 12:51:21;;;;;;;;;;;22.70;99.90;;;;;;5033612;28;19913;-85
2023/05/09 12:53:47;;;;;;;;;;;23.20;99.90;;;;;;5032156;28;19991;-85